createdAt,value
2018-10-16T00:00:34.726Z,100368.81
2018-10-16T00:02:42.962Z,100382.72
2018-10-16T00:04:59.901Z,100383.80
2018-10-16T00:07:17.191Z,100377.55
2018-10-16T00:09:29.352Z,100382.84
2018-10-16T00:12:27.179Z,100389.37
2018-10-16T00:14:16.926Z,100394.90
2018-10-16T00:16:26.046Z,100400.81
2018-10-16T00:18:44.067Z,100393.45
2018-10-16T00:20:51.641Z,100400.02
2018-10-16T00:23:04.100Z,100392.53
2018-10-16T00:25:20.408Z,100395.10
2018-10-16T00:27:29.814Z,100385.76
2018-10-16T00:29:46.464Z,100392.41
2018-10-16T00:31:58.186Z,100385.06
2018-10-16T00:34:26.281Z,100386.52
2018-10-16T00:36:36.437Z,100383.67
2018-10-16T00:38:45.685Z,100388.19
2018-10-16T00:41:05.071Z,100389.75
2018-10-16T00:43:18.965Z,100391.34
2018-10-16T00:45:29.551Z,100393.84
2018-10-16T00:47:49.484Z,100391.98
2018-10-16T00:50:02.008Z,100387.91
2018-10-16T00:52:11.357Z,100387.91
2018-10-16T00:54:21.391Z,100390.61
2018-10-16T00:56:30.369Z,100399.63
2018-10-16T00:58:40.046Z,100396.42
2018-10-16T01:00:52.551Z,100395.90
2018-10-16T01:03:00.897Z,100398.95
2018-10-16T01:05:11.356Z,100397.20
2018-10-16T01:07:19.601Z,100407.23
2018-10-16T01:09:27.503Z,100409.81
2018-10-16T01:11:36.417Z,100410.17
2018-10-16T01:13:44.427Z,100410.42
2018-10-16T01:15:52.403Z,100415.03
2018-10-16T01:18:00.486Z,100419.08
2018-10-16T01:20:11.419Z,100418.67
2018-10-16T01:22:19.765Z,100419.98
2018-10-16T01:24:27.782Z,100420.80
2018-10-16T01:26:35.988Z,100411.45
2018-10-16T01:28:46.268Z,100405.17
2018-10-16T01:30:54.229Z,100413.31
2018-10-16T01:33:03.214Z,100408.71
2018-10-16T01:35:11.423Z,100410.42
2018-10-16T01:37:19.418Z,100409.51
2018-10-16T01:39:27.744Z,100415.13
2018-10-16T01:41:35.863Z,100408.56
2018-10-16T01:43:43.863Z,100414.16
2018-10-16T01:45:51.851Z,100416.27
2018-10-16T01:47:59.900Z,100414.81
2018-10-16T01:50:08.163Z,100419.41
2018-10-16T01:52:17.378Z,100421.06
2018-10-16T01:54:25.786Z,100415.66
2018-10-16T01:56:34.810Z,100415.91
2018-10-16T01:58:42.855Z,100425.35
2018-10-16T02:00:50.953Z,100420.37
2018-10-16T02:02:59.055Z,100420.63
2018-10-16T02:05:07.820Z,100420.88
2018-10-16T02:07:15.887Z,100421.67
2018-10-16T02:09:24.896Z,100428.91
2018-10-16T02:11:32.982Z,100426.76
2018-10-16T02:13:40.945Z,100440.94
2018-10-16T02:15:49.285Z,100439.78
2018-10-16T02:17:57.342Z,100444.58
2018-10-16T02:20:05.662Z,100441.30
2018-10-16T02:22:13.717Z,100445.34
2018-10-16T02:24:21.720Z,100454.53
2018-10-16T02:26:30.014Z,100449.28
2018-10-16T02:28:37.995Z,100444.94
2018-10-16T02:30:45.968Z,100453.11
2018-10-16T02:32:57.403Z,100451.64
2018-10-16T02:35:06.296Z,100455.72
2018-10-16T02:37:12.084Z,100460.67
2018-10-16T02:39:20.116Z,100469.14
2018-10-16T02:41:28.121Z,100465.91
2018-10-16T02:43:36.098Z,100460.84
2018-10-16T02:45:44.521Z,100467.09
2018-10-16T02:47:52.530Z,100466.73
2018-10-16T02:50:00.617Z,100468.96
2018-10-16T02:52:08.717Z,100471.27
2018-10-16T02:54:17.059Z,100474.40
2018-10-16T02:56:25.094Z,100473.09
2018-10-16T02:58:33.104Z,100478.95
2018-10-16T03:00:41.895Z,100478.17
2018-10-16T03:02:49.855Z,100484.28
2018-10-16T03:04:58.158Z,100484.02
2018-10-16T03:07:06.141Z,100489.05
2018-10-16T03:09:14.252Z,100490.87
2018-10-16T03:11:22.211Z,100490.60
2018-10-16T03:13:30.597Z,100488.52
2018-10-16T03:15:38.771Z,100492.45
2018-10-16T03:17:46.736Z,100498.66
2018-10-16T03:22:02.235Z,100490.69
2018-10-16T03:24:11.251Z,100500.56
2018-10-16T03:26:19.259Z,100496.58
2018-10-16T03:28:27.264Z,100494.99
2018-10-16T03:30:36.231Z,100492.53
2018-10-16T03:32:44.652Z,100493.61
2018-10-16T03:34:52.646Z,100496.88
2018-10-16T03:37:00.640Z,100500.02
2018-10-16T03:39:11.310Z,100499.36
2018-10-16T03:41:19.353Z,100504.33
2018-10-16T03:43:27.346Z,100511.66
2018-10-16T03:45:35.347Z,100509.04
2018-10-16T03:47:43.421Z,100515.05
2018-10-16T03:49:51.976Z,100515.05
2018-10-16T03:52:01.042Z,100515.91
2018-10-16T03:54:09.704Z,100514.02
2018-10-16T03:56:17.786Z,100517.04
2018-10-16T03:58:25.783Z,100524.55
2018-10-16T04:00:33.777Z,100519.16
2018-10-16T04:02:42.117Z,100522.09
2018-10-16T04:04:50.778Z,100523.66
2018-10-16T04:06:58.916Z,100522.55
2018-10-16T04:09:08.652Z,100528.75
2018-10-16T04:11:17.978Z,100522.16
2018-10-16T04:13:26.022Z,100526.41
2018-10-16T04:15:33.999Z,100523.66
2018-10-16T04:17:43.101Z,100528.41
2018-10-16T04:19:51.061Z,100527.58
2018-10-16T04:21:59.079Z,100527.95
2018-10-16T04:24:07.073Z,100533.89
2018-10-16T04:26:15.257Z,100532.66
2018-10-16T04:28:23.400Z,100531.61
2018-10-16T04:30:31.385Z,100531.38
2018-10-16T04:32:39.911Z,100539.41
2018-10-16T04:34:49.397Z,100537.77
2018-10-16T04:36:57.441Z,100545.63
2018-10-16T04:39:06.068Z,100544.36
2018-10-16T04:41:11.594Z,100539.12
2018-10-16T04:43:19.627Z,100540.02
2018-10-16T04:45:27.658Z,100535.59
2018-10-16T04:47:35.762Z,100532.40
2018-10-16T04:49:44.122Z,100533.21
2018-10-16T04:51:52.231Z,100535.42
2018-10-16T04:54:00.173Z,100542.14
2018-10-16T04:56:08.319Z,100547.55
2018-10-16T04:58:17.874Z,100541.26
2018-10-16T05:00:25.982Z,100545.52
2018-10-16T05:02:33.910Z,100542.23
2018-10-16T05:04:41.966Z,100551.57
2018-10-16T05:06:49.946Z,100547.35
2018-10-16T05:09:02.114Z,100547.88
2018-10-16T05:11:10.493Z,100552.59
2018-10-16T05:13:18.537Z,100554.59
2018-10-16T05:15:36.571Z,100559.23
2018-10-16T05:17:45.727Z,100558.61
2018-10-16T05:19:54.059Z,100555.87
2018-10-16T05:22:02.079Z,100562.84
2018-10-16T05:24:11.137Z,100559.77
2018-10-16T05:26:20.049Z,100566.31
2018-10-16T05:28:28.128Z,100569.11
2018-10-16T05:30:36.219Z,100570.28
2018-10-16T05:32:47.542Z,100562.75
2018-10-16T05:34:55.523Z,100565.53
2018-10-16T05:37:03.603Z,100567.09
2018-10-16T05:39:13.432Z,100570.70
2018-10-16T05:41:19.216Z,100575.20
2018-10-16T05:43:27.943Z,100575.03
2018-10-16T05:45:38.450Z,100581.45
2018-10-16T05:47:46.907Z,100584.38
2018-10-16T05:49:54.981Z,100588.58
2018-10-16T05:52:02.946Z,100600.22
2018-10-16T05:54:10.980Z,100597.45
2018-10-16T05:56:18.985Z,100593.30
2018-10-16T05:58:26.962Z,100590.87
2018-10-16T06:00:48.069Z,100592.28
2018-10-16T06:02:55.973Z,100600.17
2018-10-16T06:05:04.374Z,100600.73
2018-10-16T06:07:12.357Z,100602.94
2018-10-16T06:09:20.432Z,100609.14
2018-10-16T06:11:28.443Z,100600.88
2018-10-16T06:13:36.433Z,100595.98
2018-10-16T06:15:46.941Z,100602.48
2018-10-16T06:17:54.928Z,100600.63
2018-10-16T06:20:02.987Z,100605.78
2018-10-16T06:22:11.191Z,100604.47
2018-10-16T06:24:20.047Z,100611.42
2018-10-16T06:26:29.142Z,100608.40
2018-10-16T06:28:37.155Z,100611.02
2018-10-16T06:30:45.289Z,100615.80
2018-10-16T06:32:55.096Z,100627.47
2018-10-16T06:35:03.414Z,100626.61
2018-10-16T06:37:11.425Z,100626.13
2018-10-16T06:39:19.423Z,100634.70
2018-10-16T06:41:27.592Z,100627.66
2018-10-16T06:43:35.549Z,100639.34
2018-10-16T06:45:44.707Z,100636.58
2018-10-16T06:47:53.035Z,100634.74
2018-10-16T06:50:00.954Z,100647.34
2018-10-16T06:52:08.957Z,100639.38
2018-10-16T06:54:17.125Z,100644.13
2018-10-16T06:56:25.595Z,100646.16
2018-10-16T06:58:33.601Z,100649.89
2018-10-16T07:00:42.595Z,100649.18
2018-10-16T07:02:52.057Z,100649.28
2018-10-16T07:05:00.749Z,100652.49
2018-10-16T07:07:09.897Z,100651.28
2018-10-16T07:09:17.748Z,100657.15
2018-10-16T07:11:25.733Z,100658.26
2018-10-16T07:13:33.737Z,100659.33
2018-10-16T07:15:43.679Z,100662.12
2018-10-16T07:17:51.674Z,100665.40
2018-10-16T07:20:02.870Z,100668.27
2018-10-16T07:22:12.364Z,100668.92
2018-10-16T07:24:20.863Z,100671.74
2018-10-16T07:26:29.725Z,100671.86
2018-10-16T07:28:37.876Z,100668.45
2018-10-16T07:30:46.442Z,100678.56
2018-10-16T07:32:54.512Z,100676.48
2018-10-16T07:35:02.733Z,100677.86
2018-10-16T07:37:11.176Z,100674.44
2018-10-16T07:39:19.214Z,100675.42
2018-10-16T07:41:27.212Z,100674.56
2018-10-16T07:43:34.263Z,100671.58
2018-10-16T07:45:42.264Z,100678.64
2018-10-16T07:47:52.094Z,100671.78
2018-10-16T07:50:00.220Z,100670.95
2018-10-16T07:52:16.518Z,100676.30
2018-10-16T07:54:28.899Z,100668.57
2018-10-16T07:56:37.934Z,100666.02
2018-10-16T07:58:46.917Z,100668.20
2018-10-16T08:00:56.676Z,100668.84
2018-10-16T08:03:12.466Z,100664.17
2018-10-16T08:05:31.111Z,100669.12
2018-10-16T08:07:43.287Z,100674.53
2018-10-16T08:09:55.810Z,100684.25
2018-10-16T08:12:05.477Z,100672.96
2018-10-16T08:14:18.400Z,100680.50
2018-10-16T08:16:27.549Z,100679.73
2018-10-16T08:18:36.801Z,100677.61
2018-10-16T08:20:45.661Z,100672.47
2018-10-16T08:22:58.156Z,100669.88
2018-10-16T08:25:07.683Z,100668.81
2018-10-16T08:27:19.508Z,100678.47
2018-10-16T08:29:28.708Z,100678.20
2018-10-16T08:31:38.213Z,100679.70
2018-10-16T08:33:51.649Z,100678.51
2018-10-16T08:36:00.870Z,100681.66
2018-10-16T08:38:56.596Z,100683.89
2018-10-16T08:41:10.249Z,100681.80
2018-10-16T08:46:44.437Z,100671.50
2018-10-16T08:49:50.111Z,100676.25
2018-10-16T08:52:00.815Z,100682.45
2018-10-16T08:54:11.794Z,100680.78
2018-10-16T08:56:21.172Z,100688.30
2018-10-16T08:58:30.533Z,100681.88
2018-10-16T09:00:40.163Z,100682.67
2018-10-16T09:02:50.065Z,100684.55
2018-10-16T09:04:59.291Z,100685.01
2018-10-16T09:07:08.700Z,100688.13
2018-10-16T09:09:20.867Z,100691.26
2018-10-16T09:11:29.984Z,100679.08
2018-10-16T09:13:39.372Z,100683.02
2018-10-16T09:15:49.076Z,100681.39
2018-10-16T09:17:58.793Z,100683.25
2018-10-16T09:20:08.994Z,100683.80
2018-10-16T09:22:18.415Z,100675.16
2018-10-16T09:24:28.360Z,100677.85
2018-10-16T09:26:51.146Z,100686.64
2018-10-16T09:29:03.119Z,100688.46
2018-10-16T09:31:21.914Z,100683.89
2018-10-16T09:33:22.929Z,100675.32
2018-10-16T09:35:36.063Z,100679.14
2018-10-16T09:37:46.239Z,100681.06
2018-10-16T09:39:54.381Z,100679.38
2018-10-16T09:42:02.342Z,100674.34
2018-10-16T09:44:10.322Z,100682.41
2018-10-16T09:46:20.696Z,100671.97
2018-10-16T09:48:27.081Z,100676.07
2018-10-16T09:50:35.136Z,100671.30
2018-10-16T09:52:43.723Z,100673.61
2018-10-16T09:54:52.284Z,100674.59
2018-10-16T09:57:02.832Z,100673.79
2018-10-16T09:59:14.713Z,100667.77
2018-10-16T10:01:40.724Z,100672.80
2018-10-16T10:03:48.827Z,100665.34
2018-10-16T10:05:56.852Z,100668.22
2018-10-16T10:08:05.263Z,100663.05
2018-10-16T10:10:13.703Z,100663.99
2018-10-16T10:12:21.901Z,100657.03
2018-10-16T10:14:30.244Z,100659.71
2018-10-16T10:16:38.365Z,100662.01
2018-10-16T10:18:47.563Z,100656.36
2018-10-16T10:20:55.642Z,100653.27
2018-10-16T10:23:03.851Z,100664.28
2018-10-16T10:25:13.008Z,100666.45
2018-10-16T10:27:21.369Z,100657.29
2018-10-16T10:29:29.365Z,100656.07
2018-10-16T10:31:37.390Z,100661.00
2018-10-16T10:33:45.698Z,100662.34
2018-10-16T10:36:00.030Z,100656.56
2018-10-16T10:38:09.164Z,100652.13
2018-10-16T10:40:17.166Z,100649.11
2018-10-16T10:42:25.510Z,100652.12
2018-10-16T10:44:33.520Z,100654.02
2018-10-16T10:46:42.737Z,100647.39
2018-10-16T10:48:50.978Z,100645.69
2018-10-16T10:50:59.116Z,100641.45
2018-10-16T10:53:07.328Z,100639.83
2018-10-16T10:55:15.879Z,100636.49
2018-10-16T10:57:24.729Z,100633.55
2018-10-16T10:59:47.636Z,100630.13
2018-10-16T11:01:48.687Z,100623.66
2018-10-16T11:03:58.296Z,100626.87
2018-10-16T11:06:07.048Z,100629.12
2018-10-16T11:08:15.189Z,100625.14
2018-10-16T11:10:23.177Z,100618.48
2018-10-16T11:12:31.257Z,100618.34
2018-10-16T11:14:39.494Z,100625.82
2018-10-16T11:16:47.820Z,100621.78
2018-10-16T11:18:56.440Z,100619.11
2018-10-16T11:21:04.466Z,100627.23
2018-10-16T11:23:12.608Z,100617.22
2018-10-16T11:25:20.596Z,100623.98
2018-10-16T11:27:28.674Z,100616.80
2018-10-16T11:29:36.728Z,100617.24
2018-10-16T11:31:47.042Z,100619.48
2018-10-16T11:33:59.685Z,100616.27
2018-10-16T11:36:07.833Z,100611.06
2018-10-16T11:38:16.054Z,100607.03
2018-10-16T11:40:24.072Z,100609.64
2018-10-16T11:42:32.145Z,100611.14
2018-10-16T11:44:42.294Z,100604.64
2018-10-16T11:46:50.225Z,100611.91
2018-10-16T11:48:58.384Z,100606.39
2018-10-16T11:51:06.423Z,100610.20
2018-10-16T11:53:14.590Z,100609.15
2018-10-16T11:55:22.828Z,100604.72
2018-10-16T11:57:31.668Z,100605.89
2018-10-16T11:59:39.681Z,100613.05
2018-10-16T12:01:51.414Z,100607.97
2018-10-16T12:03:59.635Z,100610.77
2018-10-16T12:06:09.463Z,100604.87
2018-10-16T12:08:17.466Z,100601.12
2018-10-16T12:10:26.995Z,100601.16
2018-10-16T12:12:40.329Z,100591.86
2018-10-16T12:14:48.408Z,100588.03
2018-10-16T12:17:03.256Z,100591.82
2018-10-16T12:19:21.732Z,100595.71
2018-10-16T12:21:29.818Z,100599.73
2018-10-16T12:23:38.087Z,100597.09
2018-10-16T12:25:46.148Z,100595.06
2018-10-16T12:27:56.995Z,100588.43
2018-10-16T12:30:05.650Z,100584.83
2018-10-16T12:32:13.746Z,100589.18
2018-10-16T12:34:21.688Z,100583.88
2018-10-16T12:36:30.766Z,100574.56
2018-10-16T12:38:39.866Z,100569.36
2018-10-16T12:40:47.820Z,100582.10
2018-10-16T12:42:55.891Z,100586.34
2018-10-16T12:45:03.936Z,100584.20
2018-10-16T12:47:12.173Z,100582.77
2018-10-16T12:49:20.636Z,100580.70
2018-10-16T12:51:29.955Z,100575.03
2018-10-16T12:53:38.882Z,100573.34
2018-10-16T12:55:47.886Z,100571.86
2018-10-16T12:57:55.954Z,100572.23
2018-10-16T13:00:04.139Z,100568.72
2018-10-16T13:02:12.216Z,100570.91
2018-10-16T13:04:22.122Z,100563.75
2018-10-16T13:06:30.150Z,100563.86
2018-10-16T13:08:40.597Z,100564.93
2018-10-16T13:10:48.674Z,100564.70
2018-10-16T13:12:56.739Z,100566.74
2018-10-16T13:15:04.870Z,100559.36
2018-10-16T13:17:12.907Z,100565.66
2018-10-16T13:19:20.917Z,100568.09
2018-10-16T13:21:32.590Z,100566.53
2018-10-16T13:23:40.818Z,100568.56
2018-10-16T13:25:49.095Z,100564.45
2018-10-16T13:27:59.626Z,100562.84
2018-10-16T13:30:09.886Z,100564.32
2018-10-16T13:32:19.241Z,100564.91
2018-10-16T13:34:27.293Z,100567.31
2018-10-16T13:36:35.420Z,100562.22
2018-10-16T13:38:43.568Z,100556.98
2018-10-16T13:40:51.993Z,100553.08
2018-10-16T13:43:00.023Z,100551.39
2018-10-16T13:45:08.972Z,100559.50
2018-10-16T13:47:16.964Z,100557.90
2018-10-16T13:49:25.226Z,100556.33
2018-10-16T13:51:33.377Z,100556.42
2018-10-16T13:53:41.374Z,100555.67
2018-10-16T13:55:50.288Z,100558.22
2018-10-16T13:57:58.403Z,100559.92
2018-10-16T14:00:13.384Z,100556.25
2018-10-16T14:02:21.423Z,100556.62
2018-10-16T14:04:29.468Z,100552.37
2018-10-16T14:06:37.531Z,100551.98
2018-10-16T14:08:45.624Z,100554.53
2018-10-16T14:10:53.614Z,100558.27
2018-10-16T14:13:01.628Z,100556.70
2018-10-16T14:15:26.081Z,100554.15
2018-10-16T14:17:40.151Z,100559.59
2018-10-16T14:19:48.221Z,100556.80
2018-10-16T14:21:56.256Z,100548.98
2018-10-16T14:24:07.000Z,100554.06
2018-10-16T14:26:15.231Z,100553.45
2018-10-16T14:28:24.109Z,100556.48
2018-10-16T14:30:34.883Z,100556.00
2018-10-16T14:32:44.435Z,100555.52
2018-10-16T14:34:56.370Z,100556.13
2018-10-16T14:37:39.037Z,100559.64
2018-10-16T14:39:52.758Z,100554.67
2018-10-16T14:42:00.737Z,100557.34
2018-10-16T14:44:09.691Z,100558.19
2018-10-16T14:46:17.475Z,100556.48
2018-10-16T14:48:25.521Z,100562.69
2018-10-16T14:50:34.245Z,100559.89
2018-10-16T14:52:43.750Z,100558.88
2018-10-16T14:54:52.309Z,100558.88
2018-10-16T14:57:01.650Z,100557.06
2018-10-16T14:59:11.392Z,100562.41
2018-10-16T15:01:19.792Z,100555.61
2018-10-16T15:03:29.375Z,100561.80
2018-10-16T15:05:38.270Z,100556.45
2018-10-16T15:07:46.883Z,100558.28
2018-10-16T15:09:55.603Z,100561.92
2018-10-16T15:12:03.783Z,100562.41
2018-10-16T15:14:11.831Z,100560.70
2018-10-16T15:16:19.836Z,100560.02
2018-10-16T15:18:27.914Z,100557.46
2018-10-16T15:20:35.980Z,100555.39
2018-10-16T15:22:44.123Z,100553.36
2018-10-16T15:24:52.158Z,100553.60
2018-10-16T15:27:00.593Z,100550.72
2018-10-16T15:29:09.859Z,100555.00
2018-10-16T15:31:20.518Z,100550.27
2018-10-16T15:33:29.992Z,100547.50
2018-10-16T15:35:38.726Z,100547.83
2018-10-16T15:37:46.726Z,100553.69
2018-10-16T15:39:54.826Z,100549.89
2018-10-16T15:42:02.823Z,100551.71
2018-10-16T15:44:11.247Z,100555.02
2018-10-16T15:46:20.717Z,100551.25
2018-10-16T15:48:29.757Z,100553.46
2018-10-16T15:50:39.157Z,100553.00
2018-10-16T15:52:50.075Z,100543.67
2018-10-16T15:54:58.823Z,100546.98
2018-10-16T15:57:09.255Z,100550.52
2018-10-16T15:59:17.415Z,100554.88
2018-10-16T16:01:26.214Z,100548.74
2018-10-16T16:03:34.372Z,100549.95
2018-10-16T16:05:42.394Z,100548.77
2018-10-16T16:07:51.524Z,100556.16
2018-10-16T16:10:00.531Z,100555.36
2018-10-16T16:12:08.994Z,100559.23
2018-10-16T16:14:17.333Z,100559.23
2018-10-16T16:16:25.501Z,100554.24
2018-10-16T16:18:33.961Z,100566.14
2018-10-16T16:20:42.172Z,100561.78
2018-10-16T16:22:50.577Z,100556.45
2018-10-16T16:24:58.689Z,100557.30
2018-10-16T16:27:06.791Z,100563.13
2018-10-16T16:29:15.014Z,100566.30
2018-10-16T16:31:23.134Z,100574.79
2018-10-16T16:33:31.271Z,100578.53
2018-10-16T16:35:39.392Z,100583.25
2018-10-16T16:37:47.756Z,100583.13
2018-10-16T16:39:56.492Z,100586.34
2018-10-16T16:42:04.825Z,100580.19
2018-10-16T16:44:12.847Z,100575.32
2018-10-16T16:46:20.966Z,100580.49
2018-10-16T16:48:29.297Z,100589.11
2018-10-16T16:50:37.473Z,100595.75
2018-10-16T16:52:45.667Z,100596.69
2018-10-16T16:54:53.692Z,100597.53
2018-10-16T16:57:02.366Z,100600.79
2018-10-16T16:59:10.419Z,100596.40
2018-10-16T17:01:18.414Z,100596.85
2018-10-16T17:03:26.550Z,100597.58
2018-10-16T17:05:34.803Z,100591.75
2018-10-16T17:07:43.478Z,100596.67
2018-10-16T17:09:51.583Z,100596.84
2018-10-16T17:11:59.781Z,100606.95
2018-10-16T17:14:10.885Z,100599.95
2018-10-16T17:16:21.384Z,100599.73
2018-10-16T17:18:29.836Z,100604.36
2018-10-16T17:20:37.909Z,100601.70
2018-10-16T17:22:46.002Z,100608.30
2018-10-16T17:24:56.778Z,100608.50
2018-10-16T17:27:04.906Z,100612.49
2018-10-16T17:29:13.041Z,100617.53
2018-10-16T17:31:21.233Z,100620.70
2018-10-16T17:33:29.363Z,100616.33
2018-10-16T17:35:37.491Z,100616.19
2018-10-16T17:37:45.796Z,100623.59
2018-10-16T17:39:53.985Z,100621.73
2018-10-16T17:42:02.456Z,100626.91
2018-10-16T17:44:11.151Z,100620.48
2018-10-16T17:46:21.765Z,100626.84
2018-10-16T17:48:29.993Z,100634.81
2018-10-16T17:50:38.204Z,100631.16
2018-10-16T17:52:46.315Z,100628.51
2018-10-16T17:54:54.443Z,100630.84
2018-10-16T17:57:02.919Z,100630.46
2018-10-16T17:59:11.066Z,100628.23
2018-10-16T18:01:19.196Z,100630.27
2018-10-16T18:03:27.485Z,100630.69
2018-10-16T18:05:35.591Z,100626.47
2018-10-16T18:07:44.205Z,100625.36
2018-10-16T18:09:52.369Z,100624.64
2018-10-16T18:12:14.465Z,100625.67
2018-10-16T18:14:24.998Z,100631.45
2018-10-16T18:16:34.730Z,100630.41
2018-10-16T18:18:47.965Z,100637.05
2018-10-16T18:21:07.049Z,100633.92
2018-10-16T18:23:24.669Z,100635.94
2018-10-16T18:25:45.557Z,100640.37
2018-10-16T18:28:04.520Z,100641.14
2018-10-16T18:30:14.205Z,100633.59
2018-10-16T18:32:24.693Z,100635.19
2018-10-16T18:34:43.389Z,100637.94
2018-10-16T18:36:55.811Z,100638.00
2018-10-16T18:39:15.083Z,100638.36
2018-10-16T18:41:27.995Z,100631.75
2018-10-16T18:46:04.295Z,100638.81
2018-10-16T18:48:13.246Z,100638.98
2018-10-16T18:50:23.063Z,100644.05
2018-10-16T18:52:32.136Z,100644.41
2018-10-16T18:54:41.025Z,100640.80
2018-10-16T18:56:51.434Z,100639.28
2018-10-16T18:59:07.248Z,100641.73
2018-10-16T19:01:16.171Z,100641.61
2018-10-16T19:03:25.727Z,100645.47
2018-10-16T19:05:38.355Z,100649.98
2018-10-16T19:07:47.443Z,100648.38
2018-10-16T19:09:56.606Z,100646.75
2018-10-16T19:12:05.688Z,100642.97
2018-10-16T19:14:17.363Z,100648.41
2018-10-16T19:16:26.941Z,100645.88
2018-10-16T19:18:35.896Z,100649.14
2018-10-16T19:20:47.954Z,100646.69
2018-10-16T19:22:57.204Z,100646.09
2018-10-16T19:25:06.093Z,100645.58
2018-10-16T19:27:18.420Z,100645.92
2018-10-16T19:29:31.352Z,100647.43
2018-10-16T19:31:39.479Z,100645.64
2018-10-16T19:33:48.419Z,100645.92
2018-10-16T19:36:04.999Z,100650.20
2018-10-16T19:38:16.355Z,100649.16
2018-10-16T19:40:34.679Z,100656.16
2018-10-16T19:42:44.766Z,100650.20
2018-10-16T19:44:53.751Z,100653.26
2018-10-16T19:47:06.395Z,100649.73
2018-10-16T19:49:16.154Z,100658.86
2018-10-16T19:51:26.375Z,100666.30
2018-10-16T19:53:36.096Z,100665.49
2018-10-16T19:55:50.603Z,100665.92
2018-10-16T19:58:02.369Z,100666.25
2018-10-16T20:00:12.182Z,100666.50
2018-10-16T20:02:20.061Z,100671.54
2018-10-16T20:04:29.983Z,100678.25
2018-10-16T20:06:39.347Z,100683.14
2018-10-16T20:08:48.578Z,100683.28
2018-10-16T20:11:00.380Z,100684.78
2018-10-16T20:13:16.090Z,100689.05
2018-10-16T20:15:28.091Z,100693.55
2018-10-16T20:17:42.799Z,100701.25
2018-10-16T20:19:53.105Z,100690.30
2018-10-16T20:22:05.342Z,100692.94
2018-10-16T20:24:17.284Z,100695.82
2018-10-16T20:26:28.492Z,100696.06
2018-10-16T20:28:36.926Z,100692.56
2018-10-16T20:30:45.016Z,100694.21
2018-10-16T20:32:56.388Z,100694.36
2018-10-16T20:35:05.656Z,100696.30
2018-10-16T20:37:14.721Z,100693.41
2018-10-16T20:39:24.287Z,100693.16
2018-10-16T20:41:33.979Z,100694.20
2018-10-16T20:43:46.069Z,100693.41
2018-10-16T20:45:55.469Z,100690.30
2018-10-16T20:48:05.385Z,100687.34
2018-10-16T20:50:14.317Z,100685.02
2018-10-16T20:52:23.394Z,100692.89
2018-10-16T20:54:35.990Z,100694.98
2018-10-16T20:56:47.902Z,100692.52
2018-10-16T20:59:00.553Z,100689.48
2018-10-16T21:01:10.941Z,100683.64
2018-10-16T21:03:29.448Z,100684.49
2018-10-16T21:05:38.408Z,100681.95
2018-10-16T21:07:47.283Z,100694.37
2018-10-16T21:09:55.428Z,100695.52
2018-10-16T21:12:09.710Z,100693.98
2018-10-16T21:14:19.494Z,100688.47
2018-10-16T21:16:31.388Z,100682.94
2018-10-16T21:18:40.729Z,100688.52
2018-10-16T21:20:50.023Z,100683.58
2018-10-16T21:23:01.766Z,100683.73
2018-10-16T21:25:17.393Z,100688.09
2018-10-16T21:27:29.417Z,100685.41
2018-10-16T21:29:37.809Z,100677.56
2018-10-16T21:31:46.248Z,100679.23
2018-10-16T21:33:54.434Z,100682.00
2018-10-16T21:36:06.668Z,100677.02
2018-10-16T21:38:15.832Z,100677.02
2018-10-16T21:40:25.165Z,100672.76
2018-10-16T21:42:35.004Z,100665.07
2018-10-16T21:44:44.386Z,100678.09
2018-10-16T21:46:56.693Z,100673.12
2018-10-16T21:49:06.203Z,100668.34
2018-10-16T21:51:15.497Z,100672.59
2018-10-16T21:53:26.325Z,100669.10
2018-10-16T21:55:35.744Z,100671.34
2018-10-16T21:57:45.111Z,100659.64
2018-10-16T21:59:53.275Z,100668.08
2018-10-16T22:02:19.751Z,100671.03
2018-10-16T22:04:44.615Z,100671.55
2018-10-16T22:06:54.633Z,100668.22
2018-10-16T22:09:21.031Z,100667.58
2018-10-16T22:11:30.891Z,100669.58
2018-10-16T22:13:56.380Z,100673.36
2018-10-16T22:16:04.422Z,100676.17
2018-10-16T22:18:14.612Z,100681.30
2018-10-16T22:20:29.263Z,100681.42
2018-10-16T22:22:37.305Z,100682.06
2018-10-16T22:24:53.890Z,100684.97
2018-10-16T22:27:05.806Z,100683.55
2018-10-16T22:29:18.699Z,100690.53
2018-10-16T22:31:27.777Z,100686.14
2018-10-16T22:33:35.762Z,100688.27
2018-10-16T22:35:43.792Z,100692.48
2018-10-16T22:39:51.991Z,100692.94
2018-10-16T22:42:00.077Z,100697.34
2018-10-16T22:44:12.011Z,100698.34
2018-10-16T22:46:20.117Z,100692.32
2018-10-16T22:48:38.098Z,100695.91
2018-10-16T22:50:50.603Z,100696.36
2018-10-16T22:53:00.390Z,100698.91
2018-10-16T22:55:30.742Z,100688.56
2018-10-16T22:57:41.862Z,100700.20
2018-10-16T22:59:49.257Z,100686.92
2018-10-16T23:01:58.214Z,100686.46
2018-10-16T23:04:07.654Z,100689.34
2018-10-16T23:06:22.074Z,100692.77
2018-10-16T23:08:30.893Z,100694.55
2018-10-16T23:10:45.206Z,100692.49
2018-10-16T23:13:09.700Z,100688.35
2018-10-16T23:15:19.785Z,100687.00
2018-10-16T23:17:32.252Z,100688.33
2018-10-16T23:19:48.962Z,100684.70
2018-10-16T23:22:02.876Z,100680.19
2018-10-16T23:24:15.122Z,100678.27
2018-10-16T23:26:27.024Z,100678.59
2018-10-16T23:28:39.912Z,100678.88
2018-10-16T23:30:52.795Z,100678.13
2018-10-16T23:33:05.944Z,100686.48
2018-10-16T23:35:17.694Z,100682.62
2018-10-16T23:37:27.695Z,100678.28
2018-10-16T23:39:42.290Z,100681.82
2018-10-16T23:41:54.355Z,100681.48
2018-10-16T23:44:03.381Z,100676.41
2018-10-16T23:46:13.128Z,100681.02
2018-10-16T23:48:29.134Z,100677.72
2018-10-16T23:50:35.276Z,100681.27
2018-10-16T23:52:49.227Z,100678.06
2018-10-16T23:55:01.425Z,100680.23
2018-10-16T23:57:10.731Z,100682.13
2018-10-16T23:59:24.679Z,100679.23
